Time;durP1;ratioP1;P1;durP2;ratioP2;P2;SDS_P1;SDS_P2;PMS_P1;PMS_P2;Temp;Humidity;BMP_temperature;BMP_pressure;BME280_temperature;BME280_humidity;BME280_pressure;Samples;Min_cycle;Max_cycle;Signal;HPM_P1;HPM_P2
2020/12/07 00:01:31;;;;;;;;;;;;;;;2.85;100.00;97143.25;4922572;29;20582;-94
2020/12/07 00:03:57;;;;;;;;;;;;;;;2.47;100.00;97135.06;4929128;29;19949;-93
2020/12/07 00:06:22;;;;;;;;;;;;;;;2.50;100.00;97119.72;4922191;29;20401;-93
2020/12/07 00:08:47;;;;;;;;;;;;;;;2.43;100.00;97108.06;4928895;29;19934;-92
2020/12/07 00:11:13;;;;;;;;;;;;;;;2.50;100.00;97109.56;4921349;29;20033;-93
2020/12/07 00:13:38;;;;;;;;;;;;;;;2.32;100.00;97097.41;4927514;29;19926;-92
2020/12/07 00:16:07;;;;;;;;;;;;;;;2.65;100.00;97099.81;4921223;29;20386;-94
2020/12/07 00:18:33;;;;;;;;;;;;;;;2.77;100.00;97109.59;4955162;28;19933;-94
2020/12/07 00:20:58;;;;;;;;;;;;;;;2.57;100.00;97107.66;4927170;29;19922;-93
2020/12/07 00:23:23;;;;;;;;;;;;;;;2.48;100.00;97103.69;4928157;29;20306;-93
2020/12/07 00:25:51;;;;;;;;;;;;;;;2.30;100.00;97089.00;4928920;29;19928;-93
2020/12/07 00:28:16;;;;;;;;;;;;;;;2.45;100.00;97088.53;4921701;29;19922;-94
2020/12/07 00:30:42;;;;;;;;;;;;;;;2.92;100.00;97104.03;4927861;29;20298;-93
2020/12/07 00:33:07;;;;;;;;;;;;;;;3.11;100.00;97105.97;4928074;29;19953;-93
2020/12/07 00:35:32;;;;;;;;;;;;;;;2.68;100.00;97094.63;4927875;29;19923;-94
2020/12/07 00:37:58;;;;;;;;;;;;;;;2.57;100.00;97096.66;4928142;29;19922;-93
2020/12/07 00:40:23;;;;;;;;;;;;;;;3.04;99.70;97096.91;4918888;29;20881;-94
2020/12/07 00:42:49;;;;;;;;;;;;;;;2.96;100.00;97098.84;4919594;29;19922;-94
2020/12/07 00:45:14;;;;;;;;;;;;;;;2.99;100.00;97114.00;4922495;29;19966;-93
2020/12/07 00:47:39;;;;;;;;;;;;;;;3.15;98.82;97105.00;4928504;29;19966;-94
2020/12/07 00:50:05;;;;;;;;;;;;;;;2.38;100.00;97104.03;4922146;29;20020;-93
2020/12/07 00:52:30;;;;;;;;;;;;;;;2.80;100.00;97111.22;4920203;29;19922;-92
2020/12/07 00:54:55;;;;;;;;;;;;;;;2.98;100.00;97114.88;4928544;29;19923;-94
2020/12/07 00:57:21;;;;;;;;;;;;;;;2.84;100.00;97111.06;4921328;29;20437;-94
2020/12/07 00:59:46;;;;;;;;;;;;;;;2.54;100.00;97107.75;4920789;29;19922;-93
2020/12/07 01:02:11;;;;;;;;;;;;;;;2.60;100.00;97106.72;4918562;29;19922;-93
2020/12/07 01:04:37;;;;;;;;;;;;;;;2.62;100.00;97104.97;4926924;29;20386;-93
2020/12/07 01:07:02;;;;;;;;;;;;;;;2.39;100.00;97100.59;4926093;29;20144;-93
2020/12/07 01:09:27;;;;;;;;;;;;;;;2.54;100.00;97101.84;4920983;29;19933;-94
2020/12/07 01:11:59;;;;;;;;;;;;;;;2.67;100.00;97093.81;4919971;29;19934;-93
2020/12/07 01:14:25;;;;;;;;;;;;;;;2.74;100.00;97109.69;4943917;29;19953;-93
2020/12/07 01:16:51;;;;;;;;;;;;;;;2.89;100.00;97104.09;4922979;29;19922;-94
2020/12/07 01:19:16;;;;;;;;;;;;;;;2.83;100.00;97099.25;4926798;29;19925;-94
2020/12/07 01:21:41;;;;;;;;;;;;;;;2.30;100.00;97074.59;4925816;29;19972;-94
2020/12/07 01:24:07;;;;;;;;;;;;;;;2.17;100.00;97080.94;4928356;29;19923;-94
2020/12/07 01:26:32;;;;;;;;;;;;;;;2.13;100.00;97065.81;4922308;29;19929;-93
2020/12/07 01:28:58;;;;;;;;;;;;;;;2.12;100.00;97064.97;4920221;29;19926;-92
2020/12/07 01:31:23;;;;;;;;;;;;;;;2.40;100.00;97070.06;4927776;29;20410;-93
2020/12/07 01:33:49;;;;;;;;;;;;;;;2.44;100.00;97070.78;4919441;29;19922;-94
2020/12/07 01:36:14;;;;;;;;;;;;;;;2.53;100.00;97077.31;4928952;29;19933;-93
2020/12/07 01:38:40;;;;;;;;;;;;;;;2.76;100.00;97079.97;4921444;29;19926;-94
2020/12/07 01:41:05;;;;;;;;;;;;;;;2.41;100.00;97081.88;4921367;29;19923;-93
2020/12/07 01:43:30;;;;;;;;;;;;;;;2.68;100.00;97074.31;4926024;29;19999;-92
2020/12/07 01:45:56;;;;;;;;;;;;;;;2.47;100.00;97066.47;4921998;29;19966;-92
2020/12/07 01:48:22;;;;;;;;;;;;;;;2.53;100.00;97070.50;4921177;29;20778;-92
2020/12/07 01:50:47;;;;;;;;;;;;;;;2.73;100.00;97072.44;4920517;29;19974;-93
2020/12/07 01:53:13;;;;;;;;;;;;;;;2.43;100.00;97058.97;4920711;29;19922;-93
2020/12/07 01:55:38;;;;;;;;;;;;;;;2.23;100.00;97065.47;4927317;29;20017;-93
2020/12/07 01:58:03;;;;;;;;;;;;;;;2.33;100.00;97068.59;4920389;29;19954;-93
2020/12/07 02:00:29;;;;;;;;;;;;;;;2.50;100.00;97061.28;4926008;29;19976;-93
2020/12/07 02:02:54;;;;;;;;;;;;;;;2.55;100.00;97063.69;4920025;29;19965;-94
2020/12/07 02:05:20;;;;;;;;;;;;;;;2.66;100.00;97060.81;4924107;29;19922;-94
2020/12/07 02:07:45;;;;;;;;;;;;;;;2.31;100.00;97060.19;4920863;29;19930;-91
2020/12/07 02:10:10;;;;;;;;;;;;;;;2.56;100.00;97064.53;4919620;29;19962;-94
2020/12/07 02:12:36;;;;;;;;;;;;;;;2.53;100.00;97065.44;4918896;29;19944;-93
2020/12/07 02:15:01;;;;;;;;;;;;;;;2.56;100.00;97064.53;4921799;29;20441;-94
2020/12/07 02:17:27;;;;;;;;;;;;;;;2.64;99.96;97057.47;4922391;29;19961;-94
2020/12/07 02:19:52;;;;;;;;;;;;;;;2.39;100.00;97058.22;4927206;29;19929;-93
2020/12/07 02:22:17;;;;;;;;;;;;;;;2.25;100.00;97055.28;4922628;29;19961;-93
2020/12/07 02:24:43;;;;;;;;;;;;;;;2.34;100.00;97047.41;4925635;29;19970;-94
2020/12/07 02:27:11;;;;;;;;;;;;;;;2.17;100.00;97042.00;4921851;29;20096;-93
2020/12/07 02:29:36;;;;;;;;;;;;;;;1.97;100.00;97048.50;4924863;29;20616;-92
2020/12/07 02:32:12;;;;;;;;;;;;;;;2.30;100.00;97038.19;4919361;29;20362;-93
2020/12/07 02:34:37;;;;;;;;;;;;;;;2.44;100.00;97042.84;4935318;29;19923;-93
2020/12/07 02:37:03;;;;;;;;;;;;;;;2.38;100.00;97037.97;4925071;29;19994;-93
2020/12/07 02:39:28;;;;;;;;;;;;;;;2.39;99.92;97037.91;4920185;29;19942;-94
2020/12/07 02:41:53;;;;;;;;;;;;;;;2.49;99.67;97046.94;4918973;29;19993;-93
2020/12/07 02:44:19;;;;;;;;;;;;;;;2.62;99.10;97051.63;4924276;29;19969;-94
2020/12/07 02:46:44;;;;;;;;;;;;;;;2.83;97.34;97048.41;4923672;29;19977;-94
2020/12/07 02:49:09;;;;;;;;;;;;;;;2.84;97.04;97050.06;4925100;29;19918;-93
2020/12/07 02:51:35;;;;;;;;;;;;;;;2.84;97.43;97050.06;4922482;29;19922;-94
2020/12/07 02:54:00;;;;;;;;;;;;;;;2.98;96.00;97048.78;4923880;29;20361;-93
2020/12/07 02:56:25;;;;;;;;;;;;;;;2.85;95.93;97046.66;4930062;29;19929;-92
2020/12/07 02:58:51;;;;;;;;;;;;;;;2.92;96.25;97048.09;4924157;29;19918;-94
2020/12/07 03:01:16;;;;;;;;;;;;;;;2.77;96.68;97043.50;4930525;29;19922;-93
2020/12/07 03:03:41;;;;;;;;;;;;;;;2.91;96.16;97040.50;4924019;29;19930;-94
2020/12/07 03:06:07;;;;;;;;;;;;;;;2.78;96.38;97045.16;4925946;29;20371;-93
2020/12/07 03:08:32;;;;;;;;;;;;;;;3.05;95.62;97045.13;4931918;29;19926;-93
2020/12/07 03:10:57;;;;;;;;;;;;;;;2.78;96.94;97040.06;4922374;29;20025;-93
2020/12/07 03:13:23;;;;;;;;;;;;;;;2.75;96.16;97037.63;4927110;29;21108;-94
2020/12/07 03:15:48;;;;;;;;;;;;;;;2.64;97.82;97037.16;4919660;29;19923;-94
2020/12/07 03:18:13;;;;;;;;;;;;;;;2.77;96.42;97030.78;4921358;29;19923;-94
2020/12/07 03:20:38;;;;;;;;;;;;;;;2.61;96.67;97033.00;4947003;28;20472;-93
2020/12/07 03:23:04;;;;;;;;;;;;;;;2.42;97.88;97031.94;4923116;29;19987;-94
2020/12/07 03:25:29;;;;;;;;;;;;;;;2.51;97.37;97027.38;4931438;29;19933;-95
2020/12/07 03:27:54;;;;;;;;;;;;;;;2.53;97.01;97034.13;4926836;29;20477;-93
2020/12/07 03:30:20;;;;;;;;;;;;;;;2.50;97.44;97038.41;4930281;29;19949;-94
2020/12/07 03:32:45;;;;;;;;;;;;;;;2.53;97.42;97021.41;4928277;29;19929;-93
2020/12/07 03:35:10;;;;;;;;;;;;;;;2.40;97.31;97028.59;4922993;29;19997;-94
2020/12/07 03:37:35;;;;;;;;;;;;;;;2.49;96.99;97018.97;4922194;29;19977;-94
2020/12/07 03:40:01;;;;;;;;;;;;;;;2.37;96.68;97013.44;4925117;29;19934;-94
2020/12/07 03:42:26;;;;;;;;;;;;;;;2.12;97.91;97019.25;4924573;29;20409;-94
2020/12/07 03:44:51;;;;;;;;;;;;;;;2.28;96.90;97022.16;4922300;29;19923;-94
2020/12/07 03:47:17;;;;;;;;;;;;;;;2.39;96.46;97012.50;4930158;29;19992;-94
2020/12/07 03:49:42;;;;;;;;;;;;;;;2.02;97.91;97016.19;4943558;28;20342;-93
2020/12/07 03:52:07;;;;;;;;;;;;;;;2.17;97.29;97022.53;4923101;29;19926;-94
2020/12/07 03:54:32;;;;;;;;;;;;;;;2.26;97.21;97026.50;4924946;29;19923;-93
2020/12/07 03:56:58;;;;;;;;;;;;;;;2.09;97.28;97026.97;4923614;29;19923;-94
2020/12/07 03:59:23;;;;;;;;;;;;;;;2.11;97.39;97032.84;4922603;29;19986;-92
2020/12/07 04:01:49;;;;;;;;;;;;;;;2.19;96.71;97030.06;4923454;29;19922;-94
2020/12/07 04:04:19;;;;;;;;;;;;;;;2.10;97.14;97036.28;4923249;29;19922;-93
2020/12/07 04:06:45;;;;;;;;;;;;;;;1.77;98.36;97038.09;4924725;29;19919;-93
2020/12/07 04:09:11;;;;;;;;;;;;;;;1.64;99.35;97035.03;4921183;29;20005;-94
2020/12/07 04:11:37;;;;;;;;;;;;;;;1.72;99.10;97029.78;4955062;28;20017;-94
2020/12/07 04:14:02;;;;;;;;;;;;;;;1.94;98.46;97018.13;4921580;29;20044;-92
2020/12/07 04:16:28;;;;;;;;;;;;;;;2.16;96.82;97020.03;4921611;29;19927;-95
2020/12/07 04:18:53;;;;;;;;;;;;;;;1.97;97.24;97023.09;4923675;29;20293;-95
2020/12/07 04:21:18;;;;;;;;;;;;;;;2.06;97.37;97020.28;4925680;29;21131;-95
2020/12/07 04:23:44;;;;;;;;;;;;;;;2.13;97.12;97026.03;4921267;29;19981;-96
2020/12/07 04:26:09;;;;;;;;;;;;;;;1.89;98.03;97032.63;4929375;29;19929;-94
2020/12/07 04:28:34;;;;;;;;;;;;;;;1.88;98.24;97038.59;4928930;29;20033;-95
2020/12/07 04:31:00;;;;;;;;;;;;;;;1.67;99.49;97040.88;4956073;28;19929;-93
2020/12/07 04:33:25;;;;;;;;;;;;;;;1.66;99.01;97029.06;4923847;29;19922;-94
2020/12/07 04:35:50;;;;;;;;;;;;;;;1.93;98.43;97029.16;4924546;29;20718;-95
2020/12/07 04:38:16;;;;;;;;;;;;;;;2.00;97.59;97024.72;4925555;29;19926;-89
2020/12/07 04:40:41;;;;;;;;;;;;;;;1.90;98.26;97023.34;4927081;29;19969;-95
2020/12/07 04:43:06;;;;;;;;;;;;;;;2.02;98.18;97017.91;4925192;29;19933;-94
2020/12/07 04:45:32;;;;;;;;;;;;;;;2.16;97.46;97010.69;4938330;29;19930;-94
2020/12/07 04:47:58;;;;;;;;;;;;;;;2.13;97.11;97005.72;4921529;29;19981;-94
2020/12/07 04:50:23;;;;;;;;;;;;;;;1.77;98.81;97023.69;4944744;28;19922;-93
2020/12/07 04:52:52;;;;;;;;;;;;;;;2.02;97.72;97022.97;4921023;29;20370;-93
2020/12/07 04:55:17;;;;;;;;;;;;;;;1.84;98.73;97031.94;4923183;29;19926;-94
2020/12/07 04:57:57;;;;;;;;;;;;;;;1.63;99.60;97041.84;5087057;27;19974;-85
2020/12/07 05:00:24;;;;;;;;;;;;;;;1.76;99.85;97056.72;5106538;28;20373;-86
2020/12/07 05:02:50;;;;;;;;;;;;;;;1.77;99.34;97055.84;5073480;28;19921;-86
2020/12/07 05:05:15;;;;;;;;;;;;;;;1.93;98.72;97063.84;5080418;28;19917;-86
2020/12/07 05:07:41;;;;;;;;;;;;;;;1.45;100.00;97067.69;5079055;28;20326;-87
2020/12/07 05:10:12;;;;;;;;;;;;;;;1.54;100.00;97062.38;5050585;28;20008;-85
2020/12/07 05:12:42;;;;;;;;;;;;;;;1.54;100.00;97062.38;5078778;28;20011;-85
2020/12/07 05:15:13;;;;;;;;;;;;;;;1.72;100.00;97060.22;5079566;28;19928;-86
2020/12/07 05:17:38;;;;;;;;;;;;;;;1.74;100.00;97055.94;5078507;28;19917;-85
2020/12/07 05:20:05;;;;;;;;;;;;;;;1.66;100.00;97058.66;5054135;28;20046;-85
2020/12/07 05:22:30;;;;;;;;;;;;;;;1.60;100.00;97058.88;5080277;28;20039;-85
2020/12/07 05:24:55;;;;;;;;;;;;;;;1.68;100.00;97045.06;5058669;28;20436;-86
2020/12/07 05:27:20;;;;;;;;;;;;;;;1.75;100.00;97033.03;5088461;28;19966;-85
2020/12/07 05:30:00;;;;;;;;;;;;;;;1.75;100.00;97038.13;5052991;28;19948;-85
2020/12/07 05:32:32;;;;;;;;;;;;;;;1.78;100.00;97044.81;5071382;28;19917;-85
2020/12/07 05:34:59;;;;;;;;;;;;;;;1.94;99.38;97040.97;5087417;28;19986;-88
2020/12/07 05:37:24;;;;;;;;;;;;;;;1.96;99.81;97031.63;5071203;28;19925;-85
2020/12/07 05:39:49;;;;;;;;;;;;;;;1.95;99.88;97047.69;5053159;28;19943;-85
2020/12/07 05:42:15;;;;;;;;;;;;;;;1.91;99.68;97061.34;5060943;28;20500;-85
2020/12/07 05:44:40;;;;;;;;;;;;;;;1.98;99.71;97064.53;5077309;28;19913;-84
2020/12/07 05:47:05;;;;;;;;;;;;;;;1.97;100.00;97061.19;5054748;28;20405;-85
2020/12/07 05:49:31;;;;;;;;;;;;;;;1.94;100.00;97047.72;5071349;28;20336;-85
2020/12/07 05:51:59;;;;;;;;;;;;;;;2.11;99.64;97042.19;5052046;28;19930;-86
2020/12/07 05:54:24;;;;;;;;;;;;;;;2.11;98.97;97026.94;5053696;28;19917;-84
2020/12/07 05:56:49;;;;;;;;;;;;;;;2.16;97.90;97032.72;5088173;28;19943;-84
2020/12/07 05:59:19;;;;;;;;;;;;;;;2.28;98.66;97024.72;5086846;22;19985;-82
2020/12/07 06:01:45;;;;;;;;;;;;;;;2.12;98.74;97024.34;5041696;28;19979;-81
2020/12/07 06:04:10;;;;;;;;;;;;;;;2.31;98.06;97022.09;5062868;28;19921;-81
2020/12/07 06:06:35;;;;;;;;;;;;;;;2.30;97.80;97028.03;5069675;28;19913;-81
2020/12/07 06:09:02;;;;;;;;;;;;;;;2.25;98.73;97034.97;5057803;28;19978;-82
2020/12/07 06:11:27;;;;;;;;;;;;;;;2.33;97.20;97053.38;5054615;28;19916;-82
2020/12/07 06:13:53;;;;;;;;;;;;;;;2.21;98.52;97062.19;5053120;28;19920;-82
2020/12/07 06:16:18;;;;;;;;;;;;;;;1.90;99.49;97069.84;5055186;28;19923;-81
2020/12/07 06:18:43;;;;;;;;;;;;;;;1.77;100.00;97079.50;5054853;28;19916;-82
2020/12/07 06:21:18;;;;;;;;;;;;;;;1.91;100.00;97076.59;5055080;28;19917;-82
2020/12/07 06:23:44;;;;;;;;;;;;;;;2.01;100.00;97067.84;5052741;28;19948;-82
2020/12/07 06:26:10;;;;;;;;;;;;;;;2.17;99.00;97064.88;5056804;28;20007;-81
2020/12/07 06:28:36;;;;;;;;;;;;;;;2.29;99.58;97067.03;5041226;28;19939;-81
2020/12/07 06:31:09;;;;;;;;;;;;;;;2.35;98.93;97058.38;5055432;28;19943;-82
2020/12/07 06:33:52;;;;;;;;;;;;;;;2.24;99.04;97062.09;5055566;28;19913;-82
2020/12/07 06:36:31;;;;;;;;;;;;;;;2.01;100.00;97077.19;5055793;28;19917;-81
2020/12/07 06:39:06;;;;;;;;;;;;;;;2.12;99.70;97079.38;5053945;28;19943;-82
2020/12/07 06:41:41;;;;;;;;;;;;;;;2.03;100.00;97080.47;5057431;28;19977;-82
2020/12/07 06:44:08;;;;;;;;;;;;;;;1.91;100.00;97073.22;5052402;28;20449;-82
2020/12/07 06:46:55;;;;;;;;;;;;;;;2.06;100.00;97086.31;5055459;28;19959;-82
2020/12/07 06:49:25;;;;;;;;;;;;;;;2.03;100.00;97086.41;5053851;28;20557;-81
2020/12/07 06:51:54;;;;;;;;;;;;;;;2.00;100.00;97091.56;5055537;28;19913;-81
2020/12/07 06:57:22;;;;;;;;;;;;;;;2.19;99.70;97085.94;5050183;28;20339;-82
2020/12/07 06:59:59;;;;;;;;;;;;;;;2.19;100.00;97088.47;5051122;28;20024;-81
2020/12/07 07:02:24;;;;;;;;;;;;;;;2.17;100.00;97082.63;5053432;28;20014;-82
2020/12/07 07:04:50;;;;;;;;;;;;;;;2.28;99.08;97095.81;5051381;28;19925;-82
2020/12/07 07:07:20;;;;;;;;;;;;;;;2.25;99.60;97099.28;5053122;28;19924;-82
2020/12/07 07:09:45;;;;;;;;;;;;;;;2.35;99.75;97092.25;5035562;28;19970;-82
2020/12/07 07:12:10;;;;;;;;;;;;;;;2.23;100.00;97100.22;5050898;28;19917;-82
2020/12/07 07:14:36;;;;;;;;;;;;;;;2.24;99.38;97104.44;5036772;28;19920;-82
2020/12/07 07:17:01;;;;;;;;;;;;;;;2.37;99.81;97105.72;5054112;28;19921;-82
2020/12/07 07:19:26;;;;;;;;;;;;;;;2.20;99.87;97113.84;5052323;28;19917;-81
2020/12/07 07:21:52;;;;;;;;;;;;;;;2.23;99.45;97115.44;5049573;28;19916;-81
2020/12/07 07:24:17;;;;;;;;;;;;;;;2.09;100.00;97121.75;5031331;28;19923;-82
2020/12/07 07:26:44;;;;;;;;;;;;;;;2.10;100.00;97117.53;5049772;28;19917;-80
2020/12/07 07:29:09;;;;;;;;;;;;;;;2.24;99.94;97114.59;5046412;28;19917;-80
2020/12/07 07:31:35;;;;;;;;;;;;;;;2.27;99.95;97115.31;5046389;28;19913;-80
2020/12/07 07:34:00;;;;;;;;;;;;;;;2.13;100.00;97116.59;5047579;28;19928;-80
2020/12/07 07:36:25;;;;;;;;;;;;;;;2.16;100.00;97107.19;5041564;28;19921;-80
2020/12/07 07:38:54;;;;;;;;;;;;;;;2.18;100.00;97119.84;5029778;28;20029;-81
2020/12/07 07:41:23;;;;;;;;;;;;;;;2.19;100.00;97121.50;5047688;28;19913;-81
2020/12/07 07:43:48;;;;;;;;;;;;;;;1.97;100.00;97123.81;5045406;28;19913;-81
2020/12/07 07:46:13;;;;;;;;;;;;;;;2.18;100.00;97135.06;5046426;28;19978;-81
2020/12/07 07:48:50;;;;;;;;;;;;;;;2.16;100.00;97131.75;5045820;28;19917;-80
2020/12/07 08:17:48;;;;;;;;;;;;;;;2.27;100.00;97128.00;5038596;28;19980;-80
2020/12/07 08:20:13;;;;;;;;;;;;;;;2.20;100.00;97133.31;5043919;28;20328;-81
2020/12/07 08:22:39;;;;;;;;;;;;;;;2.17;100.00;97138.50;5041590;28;19939;-80
2020/12/07 08:25:05;;;;;;;;;;;;;;;2.13;100.00;97142.81;5044670;28;19948;-82
2020/12/07 08:27:31;;;;;;;;;;;;;;;2.37;100.00;97156.50;5042660;28;19916;-82
2020/12/07 08:30:06;;;;;;;;;;;;;;;2.18;100.00;97150.31;5043219;28;19912;-82
2020/12/07 08:32:31;;;;;;;;;;;;;;;2.37;100.00;97156.50;5038590;28;19928;-82
2020/12/07 08:34:56;;;;;;;;;;;;;;;2.25;100.00;97164.50;5037450;28;19920;-82
2020/12/07 08:37:22;;;;;;;;;;;;;;;2.31;100.00;97169.41;5038361;28;19940;-82
2020/12/07 08:39:47;;;;;;;;;;;;;;;2.34;100.00;97171.84;5042982;28;19969;-82
2020/12/07 08:42:12;;;;;;;;;;;;;;;2.34;100.00;97176.94;5040021;28;19924;-82
2020/12/07 08:44:39;;;;;;;;;;;;;;;2.29;100.00;97183.84;5039166;28;20090;-82
2020/12/07 08:47:08;;;;;;;;;;;;;;;2.39;100.00;97182.72;5024257;28;20067;-82
2020/12/07 08:49:33;;;;;;;;;;;;;;;2.40;100.00;97186.94;5023276;28;19999;-82
2020/12/07 08:51:59;;;;;;;;;;;;;;;2.57;100.00;97188.16;5041645;28;20400;-81
2020/12/07 08:54:24;;;;;;;;;;;;;;;2.57;100.00;97199.13;5036882;28;19917;-81
2020/12/07 08:56:49;;;;;;;;;;;;;;;2.58;100.00;97198.28;5026212;28;19967;-80
2020/12/07 08:59:15;;;;;;;;;;;;;;;2.56;100.00;97202.56;5040451;28;19947;-81
2020/12/07 09:01:41;;;;;;;;;;;;;;;2.61;99.33;97193.09;5034654;28;20403;-81
2020/12/07 09:04:08;;;;;;;;;;;;;;;2.53;100.00;97201.81;5041070;28;19917;-81
2020/12/07 09:06:33;;;;;;;;;;;;;;;2.49;100.00;97199.38;5039047;28;19913;-81
2020/12/07 09:08:59;;;;;;;;;;;;;;;2.58;100.00;97202.50;5022958;28;19913;-81
2020/12/07 09:11:24;;;;;;;;;;;;;;;2.51;100.00;97207.78;5037870;28;19920;-81
2020/12/07 09:13:49;;;;;;;;;;;;;;;2.54;100.00;97208.56;5045932;28;19916;-81
2020/12/07 09:16:15;;;;;;;;;;;;;;;2.54;100.00;97213.66;5030089;28;19963;-81
2020/12/07 09:18:40;;;;;;;;;;;;;;;2.57;100.00;97213.56;5043578;28;19920;-81
2020/12/07 09:21:06;;;;;;;;;;;;;;;2.48;100.00;97220.56;5038666;28;19924;-81
2020/12/07 09:23:34;;;;;;;;;;;;;;;2.65;100.00;97229.44;5038380;28;19920;-81
2020/12/07 09:26:00;;;;;;;;;;;;;;;2.81;100.00;97235.72;5041822;28;20014;-81
2020/12/07 09:28:26;;;;;;;;;;;;;;;2.74;100.00;97236.78;5039167;28;19917;-81
2020/12/07 09:30:51;;;;;;;;;;;;;;;2.64;100.00;97235.38;5042143;28;19931;-81
2020/12/07 09:33:16;;;;;;;;;;;;;;;2.73;100.00;97246.09;5042831;28;19913;-81
2020/12/07 09:35:42;;;;;;;;;;;;;;;2.45;100.00;97246.06;5040651;28;19914;-81
2020/12/07 09:38:07;;;;;;;;;;;;;;;2.74;100.00;97246.94;5041934;28;19967;-81
2020/12/07 09:40:33;;;;;;;;;;;;;;;2.84;100.00;97247.50;5042397;28;19928;-81
2020/12/07 09:43:00;;;;;;;;;;;;;;;2.93;99.81;97252.31;5039151;28;19917;-81
2020/12/07 09:45:25;;;;;;;;;;;;;;;2.70;100.00;97255.53;5042168;28;19923;-81
2020/12/07 09:47:51;;;;;;;;;;;;;;;2.80;100.00;97262.00;5045510;28;20053;-81
2020/12/07 09:50:16;;;;;;;;;;;;;;;2.83;100.00;97261.94;5040282;28;19920;-81
2020/12/07 09:52:42;;;;;;;;;;;;;;;2.87;100.00;97267.75;5043966;28;19928;-81
2020/12/07 09:55:07;;;;;;;;;;;;;;;2.87;100.00;97271.16;5039699;28;19959;-81
2020/12/07 09:57:33;;;;;;;;;;;;;;;2.80;100.00;97272.16;5046649;28;19928;-82
2020/12/07 09:59:58;;;;;;;;;;;;;;;2.87;99.89;97271.16;5046958;28;19924;-84
2020/12/07 10:02:23;;;;;;;;;;;;;;;2.97;99.85;97273.41;5039085;28;19921;-82
2020/12/07 10:04:49;;;;;;;;;;;;;;;2.98;100.00;97277.63;5048870;28;19923;-81
2020/12/07 10:07:14;;;;;;;;;;;;;;;3.06;99.63;97283.31;5044514;28;19971;-81
2020/12/07 10:09:40;;;;;;;;;;;;;;;2.96;100.00;97281.91;5040070;28;20001;-81
2020/12/07 10:12:05;;;;;;;;;;;;;;;3.14;99.78;97292.38;5043252;28;19940;-81
2020/12/07 10:14:31;;;;;;;;;;;;;;;3.13;99.60;97282.25;5041535;28;20015;-81
2020/12/07 10:16:58;;;;;;;;;;;;;;;3.17;99.96;97280.44;5043858;28;19916;-81
2020/12/07 10:19:23;;;;;;;;;;;;;;;2.90;100.00;97278.69;5050212;28;19917;-80
2020/12/07 10:21:48;;;;;;;;;;;;;;;3.24;99.68;97281.91;5039042;28;20286;-81
2020/12/07 10:24:13;;;;;;;;;;;;;;;3.18;100.00;97288.03;5039601;28;19980;-81
2020/12/07 10:26:39;;;;;;;;;;;;;;;3.24;99.58;97285.31;5043770;28;19923;-80
2020/12/07 10:29:04;;;;;;;;;;;;;;;3.18;100.00;97298.22;5041538;28;19917;-80
2020/12/07 10:31:30;;;;;;;;;;;;;;;3.28;100.00;97297.03;5041475;28;19923;-81
2020/12/07 10:33:55;;;;;;;;;;;;;;;3.23;99.58;97306.53;5042735;28;19913;-80
2020/12/07 10:36:21;;;;;;;;;;;;;;;3.35;99.05;97301.09;5046401;28;19979;-80
2020/12/07 10:38:47;;;;;;;;;;;;;;;3.28;99.41;97299.56;5044919;28;19921;-81
2020/12/07 10:41:13;;;;;;;;;;;;;;;3.32;100.00;97293.53;5042969;28;19917;-80
2020/12/07 10:43:39;;;;;;;;;;;;;;;3.34;99.72;97294.31;5040769;28;20000;-81
2020/12/07 10:46:05;;;;;;;;;;;;;;;3.23;100.00;97281.09;5037855;28;20426;-81
2020/12/07 10:48:30;;;;;;;;;;;;;;;3.42;99.60;97289.00;5027511;28;19917;-80
2020/12/07 10:50:56;;;;;;;;;;;;;;;3.44;99.46;97286.41;5045508;28;19917;-80
2020/12/07 10:53:21;;;;;;;;;;;;;;;3.31;100.00;97279.16;5036325;28;19917;-81
2020/12/07 10:55:46;;;;;;;;;;;;;;;3.45;100.00;97283.00;5048594;28;19977;-81
2020/12/07 10:58:12;;;;;;;;;;;;;;;3.55;99.90;97286.91;5038842;28;19963;-81
2020/12/07 11:00:38;;;;;;;;;;;;;;;3.55;99.00;97289.44;5046616;28;19921;-81
2020/12/07 11:03:04;;;;;;;;;;;;;;;3.67;98.70;97286.53;5042661;28;19936;-80
2020/12/07 11:05:29;;;;;;;;;;;;;;;3.75;98.21;97289.63;5043845;28;19967;-80
2020/12/07 11:07:55;;;;;;;;;;;;;;;3.60;98.97;97297.75;5049451;28;19917;-81
2020/12/07 11:10:21;;;;;;;;;;;;;;;3.54;99.72;97298.78;5044748;28;20411;-80
2020/12/07 11:12:51;;;;;;;;;;;;;;;3.59;99.08;97293.56;5042661;28;20002;-81
2020/12/07 11:15:18;;;;;;;;;;;;;;;3.60;98.94;97292.66;5043757;28;19913;-80
2020/12/07 11:17:43;;;;;;;;;;;;;;;3.57;99.39;97295.31;5043639;28;20945;-81
2020/12/07 11:20:09;;;;;;;;;;;;;;;3.44;99.88;97297.41;5048014;28;19917;-80
2020/12/07 11:22:34;;;;;;;;;;;;;;;3.37;99.77;97297.66;5043245;28;19928;-81
2020/12/07 11:24:59;;;;;;;;;;;;;;;3.56;99.96;97299.59;5046890;28;19917;-81
2020/12/07 11:27:25;;;;;;;;;;;;;;;3.67;98.50;97293.31;5052241;28;19913;-81
2020/12/07 11:29:50;;;;;;;;;;;;;;;3.65;99.59;97292.53;5029553;28;20530;-81
2020/12/07 11:32:15;;;;;;;;;;;;;;;3.90;97.96;97292.56;5048519;28;19941;-81
2020/12/07 11:34:41;;;;;;;;;;;;;;;3.88;97.99;97291.81;5047725;28;20399;-80
2020/12/07 11:37:06;;;;;;;;;;;;;;;3.81;98.12;97295.41;5028498;28;19923;-81
2020/12/07 11:39:51;;;;;;;;;;;;;;;3.82;98.96;97302.19;5040943;28;19913;-80
2020/12/07 11:44:42;;;;;;;;;;;;;;;3.96;97.26;97302.56;5039241;28;20440;-80
2020/12/07 11:47:10;;;;;;;;;;;;;;;3.94;98.49;97300.06;5044357;28;19917;-80
2020/12/07 11:49:35;;;;;;;;;;;;;;;3.84;98.39;97308.06;5038558;28;19917;-80
2020/12/07 11:52:01;;;;;;;;;;;;;;;3.99;97.80;97307.53;5043831;28;20386;-81
2020/12/07 11:54:27;;;;;;;;;;;;;;;4.09;97.24;97308.91;5033065;28;19917;-81
2020/12/07 11:56:52;;;;;;;;;;;;;;;4.03;97.74;97309.09;5046059;28;20357;-81
2020/12/07 11:59:17;;;;;;;;;;;;;;;3.95;97.68;97306.81;5051035;28;19921;-81
2020/12/07 12:01:42;;;;;;;;;;;;;;;3.87;97.83;97313.03;5051622;28;20392;-81
2020/12/07 12:04:08;;;;;;;;;;;;;;;3.88;98.39;97317.28;5050180;28;19913;-80
2020/12/07 12:06:34;;;;;;;;;;;;;;;4.02;96.99;97327.84;5048470;28;19920;-81
2020/12/07 12:09:00;;;;;;;;;;;;;;;4.15;96.71;97318.91;5048213;28;19923;-81
2020/12/07 12:11:26;;;;;;;;;;;;;;;3.98;97.25;97329.63;5037493;28;19917;-80
2020/12/07 12:13:51;;;;;;;;;;;;;;;4.01;97.16;97331.25;5040461;28;19928;-81
2020/12/07 12:16:17;;;;;;;;;;;;;;;4.11;96.91;97340.28;5044001;28;19921;-81
2020/12/07 12:18:42;;;;;;;;;;;;;;;4.00;97.37;97342.34;5044524;28;19917;-79
2020/12/07 12:21:07;;;;;;;;;;;;;;;4.26;97.16;97341.47;5034072;28;20346;-79
2020/12/07 12:23:33;;;;;;;;;;;;;;;4.12;96.77;97339.38;5038408;28;19919;-79
2020/12/07 12:25:58;;;;;;;;;;;;;;;4.14;96.51;97342.72;5027320;28;19913;-79
2020/12/07 12:28:23;;;;;;;;;;;;;;;4.12;97.03;97341.91;5042222;28;19913;-79
2020/12/07 12:30:49;;;;;;;;;;;;;;;4.02;97.61;97353.31;5041831;28;20042;-79
2020/12/07 12:33:14;;;;;;;;;;;;;;;3.94;97.70;97356.06;5037841;28;19921;-79
2020/12/07 12:35:39;;;;;;;;;;;;;;;4.06;97.23;97354.88;5040855;28;19913;-79
2020/12/07 12:38:05;;;;;;;;;;;;;;;4.18;97.27;97353.66;5044435;28;20540;-79
2020/12/07 12:40:30;;;;;;;;;;;;;;;3.91;97.83;97365.56;5025998;28;19993;-79
2020/12/07 12:42:55;;;;;;;;;;;;;;;4.09;96.88;97361.59;5042106;28;19913;-82
2020/12/07 12:45:21;;;;;;;;;;;;;;;4.01;97.15;97366.09;5039313;28;19955;-81
2020/12/07 12:47:46;;;;;;;;;;;;;;;3.97;97.38;97373.00;5039199;28;20583;-81
2020/12/07 12:50:11;;;;;;;;;;;;;;;4.01;96.99;97364.34;5041203;28;19917;-81
2020/12/07 12:52:38;;;;;;;;;;;;;;;4.19;96.60;97361.22;5040325;28;19913;-79
2020/12/07 12:55:03;;;;;;;;;;;;;;;3.90;98.15;97371.50;5036896;28;19917;-81
2020/12/07 12:57:29;;;;;;;;;;;;;;;3.95;97.31;97373.03;5037457;28;20021;-81
2020/12/07 12:59:54;;;;;;;;;;;;;;;3.91;97.10;97365.56;5042658;28;19971;-79
2020/12/07 13:02:19;;;;;;;;;;;;;;;4.00;97.29;97365.25;5039776;28;19917;-79
2020/12/07 13:04:45;;;;;;;;;;;;;;;4.01;97.09;97377.09;5039931;28;20412;-79
2020/12/07 13:07:10;;;;;;;;;;;;;;;4.07;96.85;97371.81;5039943;28;20055;-80
2020/12/07 13:09:35;;;;;;;;;;;;;;;3.89;97.29;97374.94;5040581;28;20259;-79
2020/12/07 13:12:01;;;;;;;;;;;;;;;3.98;97.22;97382.28;5041665;28;19916;-80
2020/12/07 13:14:26;;;;;;;;;;;;;;;4.01;97.70;97387.28;5028129;28;20335;-79
2020/12/07 13:17:02;;;;;;;;;;;;;;;4.10;97.36;97388.72;5038223;28;19916;-79
2020/12/07 13:19:27;;;;;;;;;;;;;;;4.24;96.76;97390.81;5044912;28;20053;-80